Gracewood, Georgia
Current Conditions -  °F | °C
As of 2:53 AM on Tuesday 27 Jan 2015 (Local Time) from KAGS Reporting Station
Clear Clear  
Wind Chill: 29°   Ceiling: Unl
Heat Index: 35°   Visibility: 10mi
Dew Point: 25°   Wind: 8mph
Humidity: 67%   Direction: 290°WNW
Pressure: 29.86"   Gusts: NA
Location:  33.37°N, 82.03°W
Report Text: KAGS 270753Z AUTO 29007KT 10SM CLR 02/M04 A2986 RMK AO2 SLP111 T00171039
Loading
Personal Weather Stations






























Interactive Weather Map New forecast layout! Learn more

10-Day Weather Forecast

Advertisements
Track Severe Weather on mobile